sensor_id;sensor_type;location;lat;lon;timestamp;P1;durP1;ratioP1;P2;durP2;ratioP2
66567;SDS011;53422;49.296;6.900;2022-10-16T00:01:47;2.20;;;0.60;;
66567;SDS011;53422;49.296;6.900;2022-10-16T00:04:12;0.75;;;0.40;;
66567;SDS011;53422;49.296;6.900;2022-10-16T00:06:38;1.23;;;0.57;;
66567;SDS011;53422;49.296;6.900;2022-10-16T00:09:04;0.77;;;0.40;;
66567;SDS011;53422;49.296;6.900;2022-10-16T00:11:31;1.00;;;0.43;;
66567;SDS011;53422;49.296;6.900;2022-10-16T00:14:02;0.80;;;0.45;;
66567;SDS011;53422;49.296;6.900;2022-10-16T00:16:29;1.17;;;0.60;;
66567;SDS011;53422;49.296;6.900;2022-10-16T00:18:55;1.25;;;0.60;;
66567;SDS011;53422;49.296;6.900;2022-10-16T00:21:23;2.78;;;0.60;;
66567;SDS011;53422;49.296;6.900;2022-10-16T00:23:51;1.30;;;0.70;;
66567;SDS011;53422;49.296;6.900;2022-10-16T00:26:18;2.15;;;0.65;;
66567;SDS011;53422;49.296;6.900;2022-10-16T00:28:45;1.00;;;0.70;;
66567;SDS011;53422;49.296;6.900;2022-10-16T00:31:12;5.55;;;0.80;;
66567;SDS011;53422;49.296;6.900;2022-10-16T00:33:38;1.88;;;0.50;;
66567;SDS011;53422;49.296;6.900;2022-10-16T00:36:05;2.33;;;0.60;;
66567;SDS011;53422;49.296;6.900;2022-10-16T00:38:32;2.05;;;0.80;;
66567;SDS011;53422;49.296;6.900;2022-10-16T00:40:58;1.27;;;0.52;;
66567;SDS011;53422;49.296;6.900;2022-10-16T00:43:35;1.23;;;0.63;;
66567;SDS011;53422;49.296;6.900;2022-10-16T00:48:39;1.55;;;0.80;;
66567;SDS011;53422;49.296;6.900;2022-10-16T00:51:06;1.10;;;0.70;;
66567;SDS011;53422;49.296;6.900;2022-10-16T00:53:33;1.52;;;0.70;;
66567;SDS011;53422;49.296;6.900;2022-10-16T00:55:59;4.10;;;1.13;;
66567;SDS011;53422;49.296;6.900;2022-10-16T00:58:25;1.88;;;1.05;;
66567;SDS011;53422;49.296;6.900;2022-10-16T01:00:51;4.13;;;0.80;;
66567;SDS011;53422;49.296;6.900;2022-10-16T01:03:31;1.70;;;0.70;;
66567;SDS011;53422;49.296;6.900;2022-10-16T01:06:06;1.88;;;0.75;;
66567;SDS011;53422;49.296;6.900;2022-10-16T01:08:58;3.15;;;0.88;;
66567;SDS011;53422;49.296;6.900;2022-10-16T01:14:19;2.35;;;1.23;;
66567;SDS011;53422;49.296;6.900;2022-10-16T01:17:02;1.35;;;0.73;;
66567;SDS011;53422;49.296;6.900;2022-10-16T01:19:41;1.40;;;0.82;;
66567;SDS011;53422;49.296;6.900;2022-10-16T01:22:20;1.42;;;0.70;;
66567;SDS011;53422;49.296;6.900;2022-10-16T01:24:50;2.08;;;0.90;;
66567;SDS011;53422;49.296;6.900;2022-10-16T01:27:26;3.00;;;0.80;;
66567;SDS011;53422;49.296;6.900;2022-10-16T01:32:40;1.23;;;0.70;;
66567;SDS011;53422;49.296;6.900;2022-10-16T01:35:17;1.67;;;0.60;;
66567;SDS011;53422;49.296;6.900;2022-10-16T01:40:14;2.00;;;0.55;;
66567;SDS011;53422;49.296;6.900;2022-10-16T01:42:44;0.82;;;0.50;;
66567;SDS011;53422;49.296;6.900;2022-10-16T01:45:15;2.10;;;0.65;;
66567;SDS011;53422;49.296;6.900;2022-10-16T01:47:44;1.73;;;0.70;;
66567;SDS011;53422;49.296;6.900;2022-10-16T01:50:11;2.00;;;0.73;;
66567;SDS011;53422;49.296;6.900;2022-10-16T01:52:40;1.48;;;0.55;;
66567;SDS011;53422;49.296;6.900;2022-10-16T01:55:10;1.92;;;0.80;;
66567;SDS011;53422;49.296;6.900;2022-10-16T01:57:40;1.17;;;0.43;;
66567;SDS011;53422;49.296;6.900;2022-10-16T02:00:10;1.70;;;0.63;;
66567;SDS011;53422;49.296;6.900;2022-10-16T02:02:38;2.58;;;0.75;;
66567;SDS011;53422;49.296;6.900;2022-10-16T02:07:37;2.80;;;0.80;;
66567;SDS011;53422;49.296;6.900;2022-10-16T02:10:03;2.28;;;0.70;;
66567;SDS011;53422;49.296;6.900;2022-10-16T02:12:33;2.22;;;0.90;;
66567;SDS011;53422;49.296;6.900;2022-10-16T02:15:01;1.85;;;0.70;;
66567;SDS011;53422;49.296;6.900;2022-10-16T02:17:27;2.60;;;0.95;;
66567;SDS011;53422;49.296;6.900;2022-10-16T02:19:53;3.00;;;1.15;;
66567;SDS011;53422;49.296;6.900;2022-10-16T02:25:05;2.28;;;0.85;;
66567;SDS011;53422;49.296;6.900;2022-10-16T02:30:20;1.83;;;1.10;;
66567;SDS011;53422;49.296;6.900;2022-10-16T02:32:47;3.97;;;0.98;;
66567;SDS011;53422;49.296;6.900;2022-10-16T02:35:18;2.55;;;0.90;;
66567;SDS011;53422;49.296;6.900;2022-10-16T02:37:46;1.83;;;0.85;;
66567;SDS011;53422;49.296;6.900;2022-10-16T02:40:13;2.67;;;0.98;;
66567;SDS011;53422;49.296;6.900;2022-10-16T02:42:40;1.80;;;0.70;;
66567;SDS011;53422;49.296;6.900;2022-10-16T02:45:07;4.63;;;0.57;;
66567;SDS011;53422;49.296;6.900;2022-10-16T02:47:34;5.10;;;1.38;;
66567;SDS011;53422;49.296;6.900;2022-10-16T02:50:00;1.60;;;0.73;;
66567;SDS011;53422;49.296;6.900;2022-10-16T02:52:26;2.83;;;0.68;;
66567;SDS011;53422;49.296;6.900;2022-10-16T02:54:51;2.88;;;0.73;;
66567;SDS011;53422;49.296;6.900;2022-10-16T02:57:17;1.55;;;0.60;;
66567;SDS011;53422;49.296;6.900;2022-10-16T02:59:43;2.13;;;0.75;;
66567;SDS011;53422;49.296;6.900;2022-10-16T03:02:09;2.78;;;0.50;;
66567;SDS011;53422;49.296;6.900;2022-10-16T03:04:35;1.98;;;0.68;;
66567;SDS011;53422;49.296;6.900;2022-10-16T03:07:00;1.77;;;0.60;;
66567;SDS011;53422;49.296;6.900;2022-10-16T03:09:26;1.52;;;0.70;;
66567;SDS011;53422;49.296;6.900;2022-10-16T03:11:52;2.03;;;0.88;;
66567;SDS011;53422;49.296;6.900;2022-10-16T03:14:17;1.60;;;0.65;;
66567;SDS011;53422;49.296;6.900;2022-10-16T03:16:43;1.80;;;0.75;;
66567;SDS011;53422;49.296;6.900;2022-10-16T03:19:09;1.58;;;0.60;;
66567;SDS011;53422;49.296;6.900;2022-10-16T03:21:34;1.23;;;0.50;;
66567;SDS011;53422;49.296;6.900;2022-10-16T03:24:00;1.45;;;0.50;;
66567;SDS011;53422;49.296;6.900;2022-10-16T03:26:25;2.83;;;0.50;;
66567;SDS011;53422;49.296;6.900;2022-10-16T03:28:51;4.32;;;0.47;;
66567;SDS011;53422;49.296;6.900;2022-10-16T03:31:16;1.48;;;0.40;;
66567;SDS011;53422;49.296;6.900;2022-10-16T03:33:42;1.83;;;0.80;;
66567;SDS011;53422;49.296;6.900;2022-10-16T03:36:07;0.93;;;0.40;;
66567;SDS011;53422;49.296;6.900;2022-10-16T03:38:33;0.98;;;0.50;;
66567;SDS011;53422;49.296;6.900;2022-10-16T03:40:59;0.85;;;0.32;;
66567;SDS011;53422;49.296;6.900;2022-10-16T03:43:24;1.55;;;0.50;;
66567;SDS011;53422;49.296;6.900;2022-10-16T03:45:50;0.88;;;0.40;;
66567;SDS011;53422;49.296;6.900;2022-10-16T03:48:16;1.02;;;0.50;;
66567;SDS011;53422;49.296;6.900;2022-10-16T03:50:42;3.08;;;0.60;;
66567;SDS011;53422;49.296;6.900;2022-10-16T03:53:08;1.90;;;0.47;;
66567;SDS011;53422;49.296;6.900;2022-10-16T03:55:34;1.05;;;0.60;;
66567;SDS011;53422;49.296;6.900;2022-10-16T03:58:00;2.30;;;0.55;;
66567;SDS011;53422;49.296;6.900;2022-10-16T04:00:26;1.05;;;0.40;;
66567;SDS011;53422;49.296;6.900;2022-10-16T04:02:52;2.30;;;0.55;;
66567;SDS011;53422;49.296;6.900;2022-10-16T04:05:18;1.25;;;0.80;;
66567;SDS011;53422;49.296;6.900;2022-10-16T04:07:43;0.95;;;0.47;;
66567;SDS011;53422;49.296;6.900;2022-10-16T04:10:09;1.77;;;0.60;;
66567;SDS011;53422;49.296;6.900;2022-10-16T04:12:35;1.20;;;0.50;;
66567;SDS011;53422;49.296;6.900;2022-10-16T04:15:00;4.15;;;0.90;;
66567;SDS011;53422;49.296;6.900;2022-10-16T04:17:26;1.50;;;0.70;;
66567;SDS011;53422;49.296;6.900;2022-10-16T04:19:51;0.88;;;0.52;;
66567;SDS011;53422;49.296;6.900;2022-10-16T04:22:17;3.70;;;0.70;;
66567;SDS011;53422;49.296;6.900;2022-10-16T04:24:42;2.65;;;0.88;;
66567;SDS011;53422;49.296;6.900;2022-10-16T04:27:08;2.10;;;0.43;;
66567;SDS011;53422;49.296;6.900;2022-10-16T04:29:34;2.08;;;0.70;;
66567;SDS011;53422;49.296;6.900;2022-10-16T04:31:59;1.00;;;0.70;;
66567;SDS011;53422;49.296;6.900;2022-10-16T04:34:25;2.58;;;0.70;;
66567;SDS011;53422;49.296;6.900;2022-10-16T04:36:50;1.60;;;0.60;;
66567;SDS011;53422;49.296;6.900;2022-10-16T04:39:16;1.20;;;0.55;;
66567;SDS011;53422;49.296;6.900;2022-10-16T04:41:42;2.65;;;0.80;;
66567;SDS011;53422;49.296;6.900;2022-10-16T04:44:08;1.38;;;0.50;;
66567;SDS011;53422;49.296;6.900;2022-10-16T04:46:34;1.55;;;0.70;;
66567;SDS011;53422;49.296;6.900;2022-10-16T04:48:59;1.58;;;0.52;;
66567;SDS011;53422;49.296;6.900;2022-10-16T04:51:25;1.23;;;0.52;;
66567;SDS011;53422;49.296;6.900;2022-10-16T04:53:52;1.00;;;0.40;;
66567;SDS011;53422;49.296;6.900;2022-10-16T04:56:18;1.90;;;0.40;;
66567;SDS011;53422;49.296;6.900;2022-10-16T04:58:43;1.85;;;0.30;;
66567;SDS011;53422;49.296;6.900;2022-10-16T05:01:09;0.60;;;0.30;;
66567;SDS011;53422;49.296;6.900;2022-10-16T05:03:34;1.42;;;0.30;;
66567;SDS011;53422;49.296;6.900;2022-10-16T05:06:00;2.28;;;0.50;;
66567;SDS011;53422;49.296;6.900;2022-10-16T05:08:26;2.78;;;0.57;;
66567;SDS011;53422;49.296;6.900;2022-10-16T05:10:51;1.60;;;0.77;;
66567;SDS011;53422;49.296;6.900;2022-10-16T05:13:17;2.13;;;0.73;;
66567;SDS011;53422;49.296;6.900;2022-10-16T05:15:46;1.27;;;0.60;;
66567;SDS011;53422;49.296;6.900;2022-10-16T05:18:13;1.67;;;0.60;;
66567;SDS011;53422;49.296;6.900;2022-10-16T05:20:38;1.95;;;0.50;;
66567;SDS011;53422;49.296;6.900;2022-10-16T05:23:04;1.10;;;0.50;;
66567;SDS011;53422;49.296;6.900;2022-10-16T05:25:30;0.82;;;0.38;;
66567;SDS011;53422;49.296;6.900;2022-10-16T05:27:55;0.98;;;0.40;;
66567;SDS011;53422;49.296;6.900;2022-10-16T05:30:21;0.35;;;0.22;;
66567;SDS011;53422;49.296;6.900;2022-10-16T05:32:47;2.20;;;0.50;;
66567;SDS011;53422;49.296;6.900;2022-10-16T05:35:14;2.88;;;0.90;;
66567;SDS011;53422;49.296;6.900;2022-10-16T05:37:40;2.33;;;0.90;;
66567;SDS011;53422;49.296;6.900;2022-10-16T05:40:05;3.95;;;1.15;;
66567;SDS011;53422;49.296;6.900;2022-10-16T05:42:31;3.00;;;1.10;;
66567;SDS011;53422;49.296;6.900;2022-10-16T05:44:57;3.15;;;1.33;;
66567;SDS011;53422;49.296;6.900;2022-10-16T05:47:22;3.78;;;1.38;;
66567;SDS011;53422;49.296;6.900;2022-10-16T05:49:48;3.08;;;1.30;;
66567;SDS011;53422;49.296;6.900;2022-10-16T05:52:14;2.35;;;1.10;;
66567;SDS011;53422;49.296;6.900;2022-10-16T05:54:39;5.45;;;1.38;;
66567;SDS011;53422;49.296;6.900;2022-10-16T05:57:05;2.85;;;1.40;;
66567;SDS011;53422;49.296;6.900;2022-10-16T05:59:31;2.88;;;1.20;;
66567;SDS011;53422;49.296;6.900;2022-10-16T06:01:57;2.63;;;1.40;;
66567;SDS011;53422;49.296;6.900;2022-10-16T06:04:22;2.67;;;1.15;;
66567;SDS011;53422;49.296;6.900;2022-10-16T06:06:48;3.50;;;1.10;;
66567;SDS011;53422;49.296;6.900;2022-10-16T06:09:13;3.53;;;1.30;;
66567;SDS011;53422;49.296;6.900;2022-10-16T06:11:39;4.05;;;1.55;;
66567;SDS011;53422;49.296;6.900;2022-10-16T06:14:04;3.10;;;1.30;;
66567;SDS011;53422;49.296;6.900;2022-10-16T06:16:32;4.03;;;1.30;;
66567;SDS011;53422;49.296;6.900;2022-10-16T06:18:59;2.90;;;1.00;;
66567;SDS011;53422;49.296;6.900;2022-10-16T06:21:25;3.35;;;1.13;;
66567;SDS011;53422;49.296;6.900;2022-10-16T06:23:53;3.53;;;1.30;;
66567;SDS011;53422;49.296;6.900;2022-10-16T06:26:20;2.22;;;1.15;;
66567;SDS011;53422;49.296;6.900;2022-10-16T06:28:48;3.15;;;1.33;;
66567;SDS011;53422;49.296;6.900;2022-10-16T06:31:14;2.63;;;1.23;;
66567;SDS011;53422;49.296;6.900;2022-10-16T06:33:41;4.40;;;1.77;;
66567;SDS011;53422;49.296;6.900;2022-10-16T06:36:07;3.88;;;1.48;;
66567;SDS011;53422;49.296;6.900;2022-10-16T06:38:35;3.17;;;1.20;;
66567;SDS011;53422;49.296;6.900;2022-10-16T06:41:01;2.95;;;1.42;;
66567;SDS011;53422;49.296;6.900;2022-10-16T06:43:28;2.08;;;1.00;;
66567;SDS011;53422;49.296;6.900;2022-10-16T06:45:58;4.82;;;1.23;;
66567;SDS011;53422;49.296;6.900;2022-10-16T06:48:24;1.63;;;0.95;;
66567;SDS011;53422;49.296;6.900;2022-10-16T06:53:34;3.40;;;1.73;;
66567;SDS011;53422;49.296;6.900;2022-10-16T06:56:08;9.23;;;4.00;;
66567;SDS011;53422;49.296;6.900;2022-10-16T06:58:35;10.73;;;3.88;;
66567;SDS011;53422;49.296;6.900;2022-10-16T07:01:01;4.82;;;1.83;;
66567;SDS011;53422;49.296;6.900;2022-10-16T07:03:26;4.47;;;1.60;;
66567;SDS011;53422;49.296;6.900;2022-10-16T07:05:52;4.13;;;1.58;;
66567;SDS011;53422;49.296;6.900;2022-10-16T07:08:18;2.75;;;1.30;;
66567;SDS011;53422;49.296;6.900;2022-10-16T07:10:43;3.78;;;1.60;;
66567;SDS011;53422;49.296;6.900;2022-10-16T07:13:09;2.95;;;1.30;;
66567;SDS011;53422;49.296;6.900;2022-10-16T07:15:38;3.35;;;1.20;;
66567;SDS011;53422;49.296;6.900;2022-10-16T07:18:03;4.00;;;1.30;;
66567;SDS011;53422;49.296;6.900;2022-10-16T07:20:29;2.60;;;1.20;;
66567;SDS011;53422;49.296;6.900;2022-10-16T07:22:54;3.90;;;1.52;;
66567;SDS011;53422;49.296;6.900;2022-10-16T07:25:20;2.38;;;1.42;;
66567;SDS011;53422;49.296;6.900;2022-10-16T07:27:45;2.67;;;1.50;;
66567;SDS011;53422;49.296;6.900;2022-10-16T07:30:11;3.47;;;1.50;;
66567;SDS011;53422;49.296;6.900;2022-10-16T07:32:37;5.03;;;2.03;;
66567;SDS011;53422;49.296;6.900;2022-10-16T07:35:03;4.40;;;2.42;;
66567;SDS011;53422;49.296;6.900;2022-10-16T07:37:29;4.22;;;1.98;;
66567;SDS011;53422;49.296;6.900;2022-10-16T07:39:54;3.40;;;1.65;;
66567;SDS011;53422;49.296;6.900;2022-10-16T07:42:20;4.28;;;1.70;;
66567;SDS011;53422;49.296;6.900;2022-10-16T07:44:46;3.13;;;1.40;;
66567;SDS011;53422;49.296;6.900;2022-10-16T07:47:11;3.00;;;1.13;;
66567;SDS011;53422;49.296;6.900;2022-10-16T07:49:37;3.22;;;1.40;;
66567;SDS011;53422;49.296;6.900;2022-10-16T07:52:02;3.17;;;1.50;;
66567;SDS011;53422;49.296;6.900;2022-10-16T07:54:28;2.97;;;1.35;;
66567;SDS011;53422;49.296;6.900;2022-10-16T07:56:54;2.42;;;1.50;;
66567;SDS011;53422;49.296;6.900;2022-10-16T07:59:20;3.75;;;1.52;;
66567;SDS011;53422;49.296;6.900;2022-10-16T08:01:45;4.45;;;1.40;;
66567;SDS011;53422;49.296;6.900;2022-10-16T08:04:11;5.75;;;2.00;;
66567;SDS011;53422;49.296;6.900;2022-10-16T08:06:37;3.80;;;1.90;;
66567;SDS011;53422;49.296;6.900;2022-10-16T08:09:05;4.28;;;2.00;;
66567;SDS011;53422;49.296;6.900;2022-10-16T08:11:31;5.28;;;2.10;;
66567;SDS011;53422;49.296;6.900;2022-10-16T08:13:57;3.67;;;1.70;;
66567;SDS011;53422;49.296;6.900;2022-10-16T08:16:23;5.50;;;1.60;;
66567;SDS011;53422;49.296;6.900;2022-10-16T08:18:48;3.15;;;1.55;;
66567;SDS011;53422;49.296;6.900;2022-10-16T08:21:17;7.55;;;1.70;;
66567;SDS011;53422;49.296;6.900;2022-10-16T08:23:44;4.25;;;1.90;;
66567;SDS011;53422;49.296;6.900;2022-10-16T08:26:10;3.00;;;1.45;;
66567;SDS011;53422;49.296;6.900;2022-10-16T08:28:36;4.35;;;1.90;;
66567;SDS011;53422;49.296;6.900;2022-10-16T08:31:12;2.92;;;1.52;;
66567;SDS011;53422;49.296;6.900;2022-10-16T08:33:40;5.20;;;1.88;;
66567;SDS011;53422;49.296;6.900;2022-10-16T08:36:07;4.28;;;2.22;;
66567;SDS011;53422;49.296;6.900;2022-10-16T08:38:35;3.50;;;1.70;;
66567;SDS011;53422;49.296;6.900;2022-10-16T08:41:13;4.07;;;1.70;;
66567;SDS011;53422;49.296;6.900;2022-10-16T08:51:24;3.90;;;1.45;;
66567;SDS011;53422;49.296;6.900;2022-10-16T08:53:57;4.38;;;2.00;;
66567;SDS011;53422;49.296;6.900;2022-10-16T08:56:26;3.85;;;2.13;;
66567;SDS011;53422;49.296;6.900;2022-10-16T08:58:53;4.22;;;2.05;;
66567;SDS011;53422;49.296;6.900;2022-10-16T09:01:20;5.43;;;2.35;;
66567;SDS011;53422;49.296;6.900;2022-10-16T09:10:00;7.18;;;2.63;;
66567;SDS011;53422;49.296;6.900;2022-10-16T09:12:37;5.82;;;2.42;;
66567;SDS011;53422;49.296;6.900;2022-10-16T09:15:16;3.13;;;1.60;;
66567;SDS011;53422;49.296;6.900;2022-10-16T09:17:54;4.53;;;1.98;;
66567;SDS011;53422;49.296;6.900;2022-10-16T09:23:13;5.07;;;2.22;;
66567;SDS011;53422;49.296;6.900;2022-10-16T09:25:44;4.18;;;1.90;;
66567;SDS011;53422;49.296;6.900;2022-10-16T09:28:13;4.25;;;1.98;;
66567;SDS011;53422;49.296;6.900;2022-10-16T09:30:38;5.75;;;2.70;;
66567;SDS011;53422;49.296;6.900;2022-10-16T09:33:04;3.63;;;1.70;;
66567;SDS011;53422;49.296;6.900;2022-10-16T09:37:57;6.85;;;2.92;;
66567;SDS011;53422;49.296;6.900;2022-10-16T09:40:30;12.48;;;4.15;;
66567;SDS011;53422;49.296;6.900;2022-10-16T09:45:57;12.60;;;4.68;;
66567;SDS011;53422;49.296;6.900;2022-10-16T09:48:31;7.68;;;2.83;;
66567;SDS011;53422;49.296;6.900;2022-10-16T09:51:02;7.38;;;3.00;;
66567;SDS011;53422;49.296;6.900;2022-10-16T09:53:42;7.25;;;3.10;;
66567;SDS011;53422;49.296;6.900;2022-10-16T09:56:21;10.60;;;3.40;;
66567;SDS011;53422;49.296;6.900;2022-10-16T09:58:52;6.22;;;2.70;;
66567;SDS011;53422;49.296;6.900;2022-10-16T10:01:20;9.57;;;3.15;;
66567;SDS011;53422;49.296;6.900;2022-10-16T10:03:46;8.60;;;3.47;;
66567;SDS011;53422;49.296;6.900;2022-10-16T10:06:23;7.55;;;2.75;;
66567;SDS011;53422;49.296;6.900;2022-10-16T10:08:54;6.00;;;2.53;;
66567;SDS011;53422;49.296;6.900;2022-10-16T10:11:38;4.15;;;2.38;;
66567;SDS011;53422;49.296;6.900;2022-10-16T10:14:20;5.05;;;2.10;;
66567;SDS011;53422;49.296;6.900;2022-10-16T10:16:46;4.03;;;2.05;;
66567;SDS011;53422;49.296;6.900;2022-10-16T10:19:19;5.82;;;2.15;;
66567;SDS011;53422;49.296;6.900;2022-10-16T10:21:47;5.10;;;2.10;;
66567;SDS011;53422;49.296;6.900;2022-10-16T10:24:15;8.13;;;2.70;;
66567;SDS011;53422;49.296;6.900;2022-10-16T10:26:44;6.38;;;2.08;;
66567;SDS011;53422;49.296;6.900;2022-10-16T10:29:20;5.93;;;2.80;;
66567;SDS011;53422;49.296;6.900;2022-10-16T10:31:55;5.03;;;2.30;;
66567;SDS011;53422;49.296;6.900;2022-10-16T10:34:29;4.90;;;2.45;;
66567;SDS011;53422;49.296;6.900;2022-10-16T10:42:49;5.75;;;2.60;;
66567;SDS011;53422;49.296;6.900;2022-10-16T10:48:27;4.28;;;2.33;;
66567;SDS011;53422;49.296;6.900;2022-10-16T10:51:00;5.05;;;2.00;;
66567;SDS011;53422;49.296;6.900;2022-10-16T10:53:34;4.32;;;1.98;;
66567;SDS011;53422;49.296;6.900;2022-10-16T10:56:14;5.68;;;2.38;;
66567;SDS011;53422;49.296;6.900;2022-10-16T11:07:07;4.38;;;1.98;;
66567;SDS011;53422;49.296;6.900;2022-10-16T11:09:57;4.20;;;1.73;;
66567;SDS011;53422;49.296;6.900;2022-10-16T11:12:39;3.88;;;1.60;;
66567;SDS011;53422;49.296;6.900;2022-10-16T11:18:00;4.20;;;1.80;;
66567;SDS011;53422;49.296;6.900;2022-10-16T11:20:30;3.00;;;1.45;;
66567;SDS011;53422;49.296;6.900;2022-10-16T11:23:06;3.22;;;1.70;;
66567;SDS011;53422;49.296;6.900;2022-10-16T11:25:41;2.47;;;1.40;;
66567;SDS011;53422;49.296;6.900;2022-10-16T11:28:12;3.47;;;1.80;;
66567;SDS011;53422;49.296;6.900;2022-10-16T11:35:47;5.00;;;1.55;;
66567;SDS011;53422;49.296;6.900;2022-10-16T11:41:27;3.65;;;1.55;;
66567;SDS011;53422;49.296;6.900;2022-10-16T11:46:43;2.92;;;1.42;;
66567;SDS011;53422;49.296;6.900;2022-10-16T11:49:16;4.95;;;1.75;;
66567;SDS011;53422;49.296;6.900;2022-10-16T11:51:51;3.78;;;1.60;;
66567;SDS011;53422;49.296;6.900;2022-10-16T11:57:32;5.43;;;1.50;;
66567;SDS011;53422;49.296;6.900;2022-10-16T12:00:10;5.13;;;1.75;;
66567;SDS011;53422;49.296;6.900;2022-10-16T12:08:20;3.03;;;1.63;;
66567;SDS011;53422;49.296;6.900;2022-10-16T12:10:46;3.00;;;1.80;;
66567;SDS011;53422;49.296;6.900;2022-10-16T12:18:36;3.95;;;1.77;;
66567;SDS011;53422;49.296;6.900;2022-10-16T12:21:03;4.70;;;2.40;;
66567;SDS011;53422;49.296;6.900;2022-10-16T12:23:31;4.10;;;1.83;;
66567;SDS011;53422;49.296;6.900;2022-10-16T12:26:01;3.25;;;1.77;;
66567;SDS011;53422;49.296;6.900;2022-10-16T12:28:28;4.32;;;2.00;;
66567;SDS011;53422;49.296;6.900;2022-10-16T12:31:06;5.55;;;2.30;;
66567;SDS011;53422;49.296;6.900;2022-10-16T12:33:41;4.78;;;2.00;;
66567;SDS011;53422;49.296;6.900;2022-10-16T12:36:33;4.32;;;1.95;;
66567;SDS011;53422;49.296;6.900;2022-10-16T12:38:59;4.25;;;1.90;;
66567;SDS011;53422;49.296;6.900;2022-10-16T12:41:27;5.80;;;1.88;;
66567;SDS011;53422;49.296;6.900;2022-10-16T12:44:00;4.55;;;1.88;;
66567;SDS011;53422;49.296;6.900;2022-10-16T12:49:05;5.38;;;1.55;;
66567;SDS011;53422;49.296;6.900;2022-10-16T12:51:44;4.38;;;1.60;;
66567;SDS011;53422;49.296;6.900;2022-10-16T12:59:45;3.63;;;1.92;;
66567;SDS011;53422;49.296;6.900;2022-10-16T13:02:29;3.40;;;1.88;;
66567;SDS011;53422;49.296;6.900;2022-10-16T13:05:23;3.83;;;1.73;;
66567;SDS011;53422;49.296;6.900;2022-10-16T13:08:13;6.82;;;1.90;;
66567;SDS011;53422;49.296;6.900;2022-10-16T13:25:10;5.28;;;1.63;;
66567;SDS011;53422;49.296;6.900;2022-10-16T13:27:48;5.00;;;1.92;;
66567;SDS011;53422;49.296;6.900;2022-10-16T13:30:20;3.35;;;1.90;;
66567;SDS011;53422;49.296;6.900;2022-10-16T13:33:03;4.43;;;2.00;;
66567;SDS011;53422;49.296;6.900;2022-10-16T13:35:33;6.55;;;2.10;;
66567;SDS011;53422;49.296;6.900;2022-10-16T13:40:34;4.43;;;2.05;;
66567;SDS011;53422;49.296;6.900;2022-10-16T13:43:00;4.90;;;1.80;;
66567;SDS011;53422;49.296;6.900;2022-10-16T13:45:26;4.90;;;1.83;;
66567;SDS011;53422;49.296;6.900;2022-10-16T13:48:05;6.10;;;1.75;;
66567;SDS011;53422;49.296;6.900;2022-10-16T13:50:34;3.95;;;1.92;;
66567;SDS011;53422;49.296;6.900;2022-10-16T13:53:06;6.50;;;2.35;;
66567;SDS011;53422;49.296;6.900;2022-10-16T13:55:37;4.43;;;1.70;;
66567;SDS011;53422;49.296;6.900;2022-10-16T13:58:11;2.95;;;1.77;;
66567;SDS011;53422;49.296;6.900;2022-10-16T14:00:38;4.82;;;1.70;;
66567;SDS011;53422;49.296;6.900;2022-10-16T14:03:15;4.38;;;1.95;;
66567;SDS011;53422;49.296;6.900;2022-10-16T14:05:43;6.43;;;2.00;;
66567;SDS011;53422;49.296;6.900;2022-10-16T14:08:14;3.88;;;2.10;;
66567;SDS011;53422;49.296;6.900;2022-10-16T14:10:40;5.25;;;1.98;;
66567;SDS011;53422;49.296;6.900;2022-10-16T14:13:06;4.57;;;2.00;;
66567;SDS011;53422;49.296;6.900;2022-10-16T14:15:34;5.75;;;1.92;;
66567;SDS011;53422;49.296;6.900;2022-10-16T14:18:01;4.47;;;1.85;;
66567;SDS011;53422;49.296;6.900;2022-10-16T14:20:31;5.05;;;2.15;;
66567;SDS011;53422;49.296;6.900;2022-10-16T14:22:59;4.65;;;2.35;;
66567;SDS011;53422;49.296;6.900;2022-10-16T14:25:28;5.35;;;2.10;;
66567;SDS011;53422;49.296;6.900;2022-10-16T14:30:27;6.03;;;2.40;;
66567;SDS011;53422;49.296;6.900;2022-10-16T14:33:00;4.55;;;2.10;;
66567;SDS011;53422;49.296;6.900;2022-10-16T14:35:32;4.20;;;2.08;;
66567;SDS011;53422;49.296;6.900;2022-10-16T14:38:00;3.72;;;2.05;;
66567;SDS011;53422;49.296;6.900;2022-10-16T14:40:29;4.55;;;2.10;;
66567;SDS011;53422;49.296;6.900;2022-10-16T14:42:56;4.57;;;2.08;;
66567;SDS011;53422;49.296;6.900;2022-10-16T14:45:24;6.32;;;2.08;;
66567;SDS011;53422;49.296;6.900;2022-10-16T14:47:53;5.57;;;2.30;;
66567;SDS011;53422;49.296;6.900;2022-10-16T14:50:24;9.23;;;2.30;;
66567;SDS011;53422;49.296;6.900;2022-10-16T14:52:49;2.97;;;1.67;;
66567;SDS011;53422;49.296;6.900;2022-10-16T14:55:15;6.10;;;2.35;;
66567;SDS011;53422;49.296;6.900;2022-10-16T14:57:42;6.03;;;1.80;;
66567;SDS011;53422;49.296;6.900;2022-10-16T15:00:19;4.85;;;2.05;;
66567;SDS011;53422;49.296;6.900;2022-10-16T15:02:47;4.18;;;2.20;;
66567;SDS011;53422;49.296;6.900;2022-10-16T15:07:47;5.18;;;2.10;;
66567;SDS011;53422;49.296;6.900;2022-10-16T15:10:14;5.85;;;2.40;;
66567;SDS011;53422;49.296;6.900;2022-10-16T15:12:41;5.18;;;2.25;;
66567;SDS011;53422;49.296;6.900;2022-10-16T15:17:47;7.47;;;2.13;;
66567;SDS011;53422;49.296;6.900;2022-10-16T15:20:22;3.83;;;2.10;;
66567;SDS011;53422;49.296;6.900;2022-10-16T15:22:49;4.05;;;2.20;;
66567;SDS011;53422;49.296;6.900;2022-10-16T15:25:34;4.53;;;2.15;;
66567;SDS011;53422;49.296;6.900;2022-10-16T15:28:07;5.78;;;2.40;;
66567;SDS011;53422;49.296;6.900;2022-10-16T15:30:34;8.50;;;2.63;;
66567;SDS011;53422;49.296;6.900;2022-10-16T15:33:00;5.00;;;2.13;;
66567;SDS011;53422;49.296;6.900;2022-10-16T15:35:27;7.78;;;3.08;;
66567;SDS011;53422;49.296;6.900;2022-10-16T15:37:52;8.55;;;2.83;;
66567;SDS011;53422;49.296;6.900;2022-10-16T15:40:18;4.85;;;2.58;;
66567;SDS011;53422;49.296;6.900;2022-10-16T15:42:45;4.05;;;2.60;;
66567;SDS011;53422;49.296;6.900;2022-10-16T15:45:11;5.32;;;2.78;;
66567;SDS011;53422;49.296;6.900;2022-10-16T15:47:37;8.57;;;2.95;;
66567;SDS011;53422;49.296;6.900;2022-10-16T15:50:04;9.57;;;2.70;;
66567;SDS011;53422;49.296;6.900;2022-10-16T15:52:30;4.90;;;2.60;;
66567;SDS011;53422;49.296;6.900;2022-10-16T15:54:57;11.27;;;3.00;;
66567;SDS011;53422;49.296;6.900;2022-10-16T15:57:22;5.25;;;2.92;;
66567;SDS011;53422;49.296;6.900;2022-10-16T15:59:49;5.45;;;3.03;;
66567;SDS011;53422;49.296;6.900;2022-10-16T16:02:14;5.22;;;2.45;;
66567;SDS011;53422;49.296;6.900;2022-10-16T16:04:40;8.15;;;2.90;;
66567;SDS011;53422;49.296;6.900;2022-10-16T16:07:06;8.15;;;2.72;;
66567;SDS011;53422;49.296;6.900;2022-10-16T16:09:34;6.30;;;2.85;;
66567;SDS011;53422;49.296;6.900;2022-10-16T16:12:00;5.45;;;2.72;;
66567;SDS011;53422;49.296;6.900;2022-10-16T16:14:26;8.50;;;3.10;;
66567;SDS011;53422;49.296;6.900;2022-10-16T16:16:55;5.32;;;2.83;;
66567;SDS011;53422;49.296;6.900;2022-10-16T16:19:22;5.88;;;3.10;;
66567;SDS011;53422;49.296;6.900;2022-10-16T16:21:53;5.30;;;2.88;;
66567;SDS011;53422;49.296;6.900;2022-10-16T16:24:18;6.00;;;3.13;;
66567;SDS011;53422;49.296;6.900;2022-10-16T16:26:44;5.57;;;3.10;;
66567;SDS011;53422;49.296;6.900;2022-10-16T16:29:13;11.25;;;3.40;;
66567;SDS011;53422;49.296;6.900;2022-10-16T16:31:40;4.82;;;2.42;;
66567;SDS011;53422;49.296;6.900;2022-10-16T16:34:07;7.30;;;3.15;;
66567;SDS011;53422;49.296;6.900;2022-10-16T16:36:32;6.13;;;3.08;;
66567;SDS011;53422;49.296;6.900;2022-10-16T16:38:59;7.72;;;2.90;;
66567;SDS011;53422;49.296;6.900;2022-10-16T16:41:26;6.53;;;2.97;;
66567;SDS011;53422;49.296;6.900;2022-10-16T16:43:54;7.82;;;3.55;;
66567;SDS011;53422;49.296;6.900;2022-10-16T16:46:25;5.65;;;2.97;;
66567;SDS011;53422;49.296;6.900;2022-10-16T16:48:51;7.93;;;2.97;;
66567;SDS011;53422;49.296;6.900;2022-10-16T16:51:20;7.43;;;3.00;;
66567;SDS011;53422;49.296;6.900;2022-10-16T16:53:47;6.95;;;3.28;;
66567;SDS011;53422;49.296;6.900;2022-10-16T16:56:14;6.85;;;3.35;;
66567;SDS011;53422;49.296;6.900;2022-10-16T16:58:40;5.10;;;2.95;;